Terminal Aerodrome Forecast
Issued by NWS

Home | Current Version | Previous Version | Text Only | Print | Product List | Glossary On
Versions: 1 2 3 4 5 6 7 8 9 10 11 12 13 14 15 16 17 18 19 20 21 22 23 24 25 26 27 28 29 30 31
000
FTUS43 KLOT 192300
TAFGYY
TAF
KGYY 192320Z 2000/2024 VRB04KT P6SM BKN300
     FM200200 12008KT P6SM BKN300
     FM201200 16008KT P6SM BKN250
     FM201600 18012KT P6SM BKN120=

USA.gov is the U.S. government's official web portal to all federal, state and local government web resources and services.